Time;durP1;ratioP1;P1;durP2;ratioP2;P2;SDS_P1;SDS_P2;PMS_P1;PMS_P2;Temp;Humidity;BMP_temperature;BMP_pressure;BME280_temperature;BME280_humidity;BME280_pressure;Samples;Min_cycle;Max_cycle;Signal;HPM_P1;HPM_P2
2022/09/23 00:01:06;;;;;;;7.72;5.53;;;;;;;;;;4991923;28;20691;-66
2022/09/23 00:03:31;;;;;;;7.65;5.22;;;;;;;;;;4992010;28;20217;-67
2022/09/23 00:05:57;;;;;;;9.18;5.53;;;;;;;;;;4992942;28;20560;-66
2022/09/23 00:08:23;;;;;;;8.98;5.32;;;;;;;;;;4992053;28;20283;-66
2022/09/23 00:10:48;;;;;;;10.32;7.40;;;;;;;;;;4993020;28;20624;-66
2022/09/23 00:13:13;;;;;;;11.50;7.00;;;;;;;;;;4992864;28;20219;-66
2022/09/23 00:15:38;;;;;;;11.05;7.30;;;;;;;;;;4992350;28;20232;-66
2022/09/23 00:18:04;;;;;;;10.32;7.00;;;;;;;;;;4992432;28;20259;-66
2022/09/23 00:20:30;;;;;;;10.05;6.78;;;;;;;;;;4993061;28;20559;-66
2022/09/23 00:22:56;;;;;;;9.57;7.00;;;;;;;;;;4992218;28;20653;-66
2022/09/23 00:25:21;;;;;;;10.27;6.97;;;;;;;;;;4992562;28;20213;-66
2022/09/23 00:27:47;;;;;;;10.10;6.53;;;;;;;;;;4992312;28;20217;-66
2022/09/23 00:30:12;;;;;;;9.10;7.00;;;;;;;;;;4992685;28;20225;-66
2022/09/23 00:32:39;;;;;;;12.15;7.53;;;;;;;;;;4992718;28;20212;-66
2022/09/23 00:35:04;;;;;;;10.15;7.10;;;;;;;;;;4991741;28;20217;-66
2022/09/23 00:37:29;;;;;;;11.15;6.85;;;;;;;;;;4992587;28;20209;-66
2022/09/23 00:39:55;;;;;;;9.05;6.43;;;;;;;;;;4993087;28;20205;-66
2022/09/23 00:42:21;;;;;;;11.32;6.82;;;;;;;;;;4991691;28;20224;-66
2022/09/23 00:44:48;;;;;;;10.05;6.93;;;;;;;;;;4975409;28;20213;-66
2022/09/23 00:47:16;;;;;;;9.27;6.47;;;;;;;;;;4992362;28;20209;-66
2022/09/23 00:49:41;;;;;;;9.52;6.75;;;;;;;;;;4991996;28;20231;-66
2022/09/23 00:52:10;;;;;;;10.32;6.43;;;;;;;;;;4991900;28;20297;-66
2022/09/23 00:54:35;;;;;;;9.23;6.47;;;;;;;;;;4992994;28;20209;-66
2022/09/23 00:57:00;;;;;;;10.77;6.32;;;;;;;;;;4991515;28;20297;-63
2022/09/23 00:59:27;;;;;;;9.30;5.78;;;;;;;;;;4991740;28;20216;-66
2022/09/23 01:01:53;;;;;;;8.88;6.18;;;;;;;;;;4991430;28;20220;-66
2022/09/23 01:04:19;;;;;;;8.95;5.75;;;;;;;;;;4990059;28;20213;-66
2022/09/23 01:06:45;;;;;;;7.38;5.70;;;;;;;;;;4993980;28;20215;-66
2022/09/23 01:09:10;;;;;;;9.82;6.07;;;;;;;;;;4995600;28;20226;-66
2022/09/23 01:11:39;;;;;;;8.27;5.93;;;;;;;;;;4995627;28;20305;-66
2022/09/23 01:14:23;;;;;;;8.23;5.95;;;;;;;;;;4995660;28;20212;-66
2022/09/23 01:16:57;;;;;;;8.68;6.10;;;;;;;;;;4995473;28;20208;-66
2022/09/23 01:19:38;;;;;;;7.15;5.32;;;;;;;;;;4995358;28;20241;-66
2022/09/23 01:22:08;;;;;;;8.85;5.78;;;;;;;;;;4995519;28;20251;-66
2022/09/23 01:24:46;;;;;;;8.88;6.10;;;;;;;;;;4993635;28;20236;-66
2022/09/23 01:27:14;;;;;;;8.93;5.85;;;;;;;;;;4995414;28;20233;-66
2022/09/23 01:29:48;;;;;;;8.52;5.75;;;;;;;;;;4994443;28;20264;-65
2022/09/23 01:32:15;;;;;;;7.82;5.90;;;;;;;;;;4981792;28;20221;-65
2022/09/23 01:34:52;;;;;;;10.73;6.07;;;;;;;;;;4981542;28;20227;-65
2022/09/23 01:37:21;;;;;;;8.30;6.20;;;;;;;;;;4972815;28;20224;-65
2022/09/23 01:39:52;;;;;;;7.65;6.00;;;;;;;;;;4982807;28;20232;-65
2022/09/23 01:42:21;;;;;;;8.45;5.93;;;;;;;;;;4966703;28;20296;-66
2022/09/23 01:44:55;;;;;;;8.82;6.25;;;;;;;;;;4985041;28;20209;-65
2022/09/23 01:47:21;;;;;;;9.93;6.50;;;;;;;;;;4970346;28;20223;-66
2022/09/23 01:49:47;;;;;;;9.48;6.35;;;;;;;;;;4951832;28;20466;-65
2022/09/23 01:52:17;;;;;;;11.57;6.60;;;;;;;;;;4951265;28;20418;-65
2022/09/23 01:54:45;;;;;;;10.07;6.40;;;;;;;;;;4975742;28;20248;-66
2022/09/23 01:57:11;;;;;;;11.95;6.70;;;;;;;;;;4973566;28;20269;-65
2022/09/23 01:59:37;;;;;;;10.63;6.90;;;;;;;;;;4976110;28;20209;-65
2022/09/23 02:02:04;;;;;;;11.95;6.85;;;;;;;;;;4977203;28;20220;-65
2022/09/23 02:04:46;;;;;;;10.88;7.43;;;;;;;;;;4976914;28;20746;-65
2022/09/23 02:07:16;;;;;;;10.95;7.30;;;;;;;;;;4973040;28;20268;-66
2022/09/23 02:09:41;;;;;;;10.43;7.47;;;;;;;;;;4966620;28;20233;-66
2022/09/23 02:12:11;;;;;;;10.13;6.97;;;;;;;;;;4951658;28;20838;-65
2022/09/23 02:14:38;;;;;;;12.45;7.20;;;;;;;;;;4969256;28;20216;-65
2022/09/23 02:17:07;;;;;;;9.70;7.22;;;;;;;;;;4971837;28;20221;-65
2022/09/23 02:19:39;;;;;;;11.20;6.85;;;;;;;;;;4958609;28;20261;-65
2022/09/23 02:22:07;;;;;;;10.23;7.30;;;;;;;;;;4975555;28;20209;-65
2022/09/23 02:24:33;;;;;;;10.35;7.68;;;;;;;;;;4978743;28;20648;-65
2022/09/23 02:27:05;;;;;;;12.68;8.00;;;;;;;;;;4977869;28;20213;-65
2022/09/23 02:29:33;;;;;;;11.77;7.95;;;;;;;;;;4977152;28;20534;-65
2022/09/23 02:31:59;;;;;;;10.77;7.50;;;;;;;;;;4972578;28;20232;-65
2022/09/23 02:34:42;;;;;;;11.15;7.38;;;;;;;;;;4968706;28;20276;-65
2022/09/23 02:37:25;;;;;;;10.48;7.35;;;;;;;;;;4970232;28;20225;-65
2022/09/23 02:39:51;;;;;;;11.57;7.70;;;;;;;;;;4974542;28;20212;-65
2022/09/23 02:42:18;;;;;;;10.45;7.72;;;;;;;;;;4957417;28;20232;-65
2022/09/23 02:44:43;;;;;;;10.60;8.10;;;;;;;;;;4977129;28;20240;-65
2022/09/23 02:47:09;;;;;;;13.20;8.15;;;;;;;;;;4977029;28;20572;-65
2022/09/23 02:49:35;;;;;;;11.05;8.15;;;;;;;;;;4977649;28;20267;-65
2022/09/23 02:52:03;;;;;;;10.80;7.65;;;;;;;;;;4978094;28;20243;-65
2022/09/23 02:54:29;;;;;;;10.10;7.82;;;;;;;;;;4974530;28;20279;-65
2022/09/23 02:56:54;;;;;;;12.63;8.05;;;;;;;;;;4966087;28;20210;-65
2022/09/23 02:59:20;;;;;;;15.02;8.57;;;;;;;;;;4951455;28;20213;-65
2022/09/23 03:01:58;;;;;;;10.20;7.43;;;;;;;;;;4972091;28;20683;-65
2022/09/23 03:04:28;;;;;;;10.82;8.13;;;;;;;;;;4976563;28;20201;-65
2022/09/23 03:07:00;;;;;;;10.13;8.00;;;;;;;;;;4977935;28;20224;-65
2022/09/23 03:09:27;;;;;;;10.85;8.27;;;;;;;;;;4971053;28;20280;-65
2022/09/23 03:11:56;;;;;;;13.25;9.20;;;;;;;;;;4977404;28;20217;-65
2022/09/23 03:14:24;;;;;;;10.73;8.25;;;;;;;;;;4975839;28;20256;-65
2022/09/23 03:16:51;;;;;;;10.95;8.70;;;;;;;;;;4969443;28;20333;-65
2022/09/23 03:19:26;;;;;;;12.90;8.18;;;;;;;;;;4953441;28;20313;-65
2022/09/23 03:21:59;;;;;;;11.25;8.38;;;;;;;;;;4968453;28;20344;-65
2022/09/23 03:24:25;;;;;;;11.75;7.93;;;;;;;;;;4973177;28;20669;-65
2022/09/23 03:26:50;;;;;;;9.38;7.50;;;;;;;;;;4976282;28;20278;-65
2022/09/23 03:29:16;;;;;;;11.32;8.10;;;;;;;;;;4976340;28;20740;-65
2022/09/23 03:31:42;;;;;;;10.48;8.02;;;;;;;;;;4974322;28;20609;-65
2022/09/23 03:34:09;;;;;;;13.90;8.05;;;;;;;;;;4975107;28;20217;-65
2022/09/23 03:36:50;;;;;;;11.75;7.65;;;;;;;;;;4977088;28;20228;-65
2022/09/23 03:39:21;;;;;;;11.00;8.07;;;;;;;;;;4972687;28;20274;-65
2022/09/23 03:41:49;;;;;;;10.20;8.18;;;;;;;;;;4965786;28;20206;-65
2022/09/23 03:44:16;;;;;;;12.27;8.07;;;;;;;;;;4968271;28;20477;-65
2022/09/23 03:46:48;;;;;;;12.05;8.15;;;;;;;;;;4972247;28;20213;-65
2022/09/23 03:49:15;;;;;;;11.57;8.38;;;;;;;;;;4976346;28;20719;-65
2022/09/23 03:51:40;;;;;;;11.32;7.82;;;;;;;;;;4976289;28;20225;-65
2022/09/23 03:54:05;;;;;;;12.13;8.38;;;;;;;;;;4980174;28;20280;-65
2022/09/23 03:56:31;;;;;;;13.77;7.93;;;;;;;;;;4979279;28;20263;-65
2022/09/23 03:58:56;;;;;;;13.52;7.65;;;;;;;;;;4963228;28;20575;-65
2022/09/23 04:01:22;;;;;;;13.55;8.20;;;;;;;;;;4962720;28;20206;-65
2022/09/23 04:03:47;;;;;;;11.77;8.35;;;;;;;;;;4951686;28;20610;-65
2022/09/23 04:06:13;;;;;;;11.30;8.00;;;;;;;;;;4950180;28;20696;-65
2022/09/23 04:08:38;;;;;;;16.08;8.63;;;;;;;;;;4951002;28;20444;-65
2022/09/23 04:11:04;;;;;;;12.80;9.55;;;;;;;;;;4956142;28;20270;-65
2022/09/23 04:13:30;;;;;;;12.75;8.52;;;;;;;;;;4956855;28;20304;-65
2022/09/23 04:15:55;;;;;;;12.43;8.07;;;;;;;;;;4957828;28;20757;-65
2022/09/23 04:18:20;;;;;;;12.90;8.38;;;;;;;;;;4957567;28;20217;-65
2022/09/23 04:20:46;;;;;;;10.48;8.52;;;;;;;;;;4956960;28;20462;-65
2022/09/23 04:23:11;;;;;;;12.07;7.80;;;;;;;;;;4957603;28;20570;-65
2022/09/23 04:25:42;;;;;;;13.25;8.15;;;;;;;;;;4952606;28;20497;-65
2022/09/23 04:28:08;;;;;;;11.27;8.32;;;;;;;;;;4968148;28;20227;-65
2022/09/23 04:30:33;;;;;;;13.18;8.15;;;;;;;;;;4969763;28;20247;-66
2022/09/23 04:32:58;;;;;;;11.68;7.97;;;;;;;;;;4975082;28;20279;-65
2022/09/23 04:35:24;;;;;;;12.13;7.85;;;;;;;;;;4974919;28;20617;-65
2022/09/23 04:37:49;;;;;;;11.13;7.90;;;;;;;;;;4976314;28;20224;-65
2022/09/23 04:40:14;;;;;;;13.88;7.82;;;;;;;;;;4972357;28;20224;-65
2022/09/23 04:42:40;;;;;;;12.57;8.20;;;;;;;;;;4959706;28;20688;-66
2022/09/23 04:45:05;;;;;;;10.82;7.70;;;;;;;;;;4960825;28;20217;-65
2022/09/23 04:47:31;;;;;;;12.30;8.35;;;;;;;;;;4957679;28;20766;-65
2022/09/23 04:49:56;;;;;;;12.27;8.05;;;;;;;;;;4953552;28;20253;-66
2022/09/23 04:52:22;;;;;;;10.60;7.60;;;;;;;;;;4953410;28;20325;-66
2022/09/23 04:54:47;;;;;;;16.90;8.25;;;;;;;;;;4957325;28;20214;-66
2022/09/23 04:57:13;;;;;;;13.38;8.18;;;;;;;;;;4960112;28;20268;-65
2022/09/23 04:59:38;;;;;;;11.45;7.57;;;;;;;;;;4977868;28;20283;-66
2022/09/23 05:02:03;;;;;;;12.82;8.13;;;;;;;;;;4978623;28;20323;-64
2022/09/23 05:04:30;;;;;;;12.50;8.65;;;;;;;;;;4979055;28;20692;-66
2022/09/23 05:06:55;;;;;;;12.10;8.02;;;;;;;;;;4979661;28;20224;-65
2022/09/23 05:09:20;;;;;;;12.45;7.88;;;;;;;;;;4973278;28;20225;-65
2022/09/23 05:11:46;;;;;;;14.05;7.80;;;;;;;;;;4953883;28;20220;-66
2022/09/23 05:14:11;;;;;;;10.55;7.70;;;;;;;;;;4952998;28;20216;-65
2022/09/23 05:16:37;;;;;;;11.70;8.35;;;;;;;;;;4954072;28;20222;-65
2022/09/23 05:19:02;;;;;;;12.10;7.65;;;;;;;;;;4965709;28;20213;-65
2022/09/23 05:21:29;;;;;;;10.73;7.75;;;;;;;;;;4960441;28;20229;-66
2022/09/23 05:23:55;;;;;;;14.38;7.55;;;;;;;;;;4982102;28;20234;-68
2022/09/23 05:26:21;;;;;;;11.25;7.78;;;;;;;;;;4987654;28;20221;-65
2022/09/23 05:28:46;;;;;;;10.25;7.40;;;;;;;;;;4989923;28;20217;-64
2022/09/23 05:31:13;;;;;;;10.93;7.20;;;;;;;;;;4971383;28;20228;-68
2022/09/23 05:33:38;;;;;;;11.73;7.97;;;;;;;;;;4989433;28;20425;-64
2022/09/23 05:36:04;;;;;;;12.02;7.00;;;;;;;;;;4989677;28;20222;-64
2022/09/23 05:38:29;;;;;;;9.25;6.95;;;;;;;;;;4988627;28;20272;-65
2022/09/23 05:40:56;;;;;;;12.05;7.60;;;;;;;;;;4987522;28;20257;-65
2022/09/23 05:43:21;;;;;;;10.02;7.32;;;;;;;;;;4987222;28;20347;-65
2022/09/23 05:45:46;;;;;;;12.48;7.63;;;;;;;;;;4989018;28;20307;-65
2022/09/23 05:48:12;;;;;;;11.10;7.80;;;;;;;;;;4989081;28;20607;-65
2022/09/23 05:50:37;;;;;;;12.82;7.45;;;;;;;;;;4989172;28;20928;-65
2022/09/23 05:53:02;;;;;;;11.68;7.20;;;;;;;;;;4986561;28;20632;-65
2022/09/23 05:55:28;;;;;;;13.25;7.45;;;;;;;;;;4989037;28;20208;-65
2022/09/23 05:57:53;;;;;;;11.70;7.03;;;;;;;;;;4989102;28;20261;-65
2022/09/23 06:00:18;;;;;;;9.27;7.13;;;;;;;;;;4987945;28;20278;-65
2022/09/23 06:02:45;;;;;;;12.45;7.50;;;;;;;;;;4988945;28;20585;-64
2022/09/23 06:05:11;;;;;;;12.68;7.07;;;;;;;;;;4991931;28;20224;-64
2022/09/23 06:07:36;;;;;;;12.30;7.30;;;;;;;;;;4994112;28;20201;-63
2022/09/23 06:10:02;;;;;;;10.90;7.88;;;;;;;;;;4992882;28;20444;-63
2022/09/23 06:12:27;;;;;;;11.30;7.38;;;;;;;;;;4992688;28;20680;-62
2022/09/23 06:14:53;;;;;;;9.15;6.43;;;;;;;;;;4988947;28;20319;-68
2022/09/23 06:17:18;;;;;;;9.50;7.00;;;;;;;;;;4988155;28;20649;-68
2022/09/23 06:19:43;;;;;;;9.75;6.88;;;;;;;;;;4989309;28;20213;-68
2022/09/23 06:22:09;;;;;;;10.05;6.70;;;;;;;;;;4987889;28;20684;-68
2022/09/23 06:24:35;;;;;;;11.43;7.25;;;;;;;;;;4998585;28;20703;-66
2022/09/23 06:27:01;;;;;;;14.40;7.50;;;;;;;;;;4986683;28;20209;-67
2022/09/23 06:29:26;;;;;;;10.63;7.18;;;;;;;;;;4997491;28;20236;-67
2022/09/23 06:31:52;;;;;;;13.27;6.75;;;;;;;;;;4992356;28;20779;-68
2022/09/23 06:34:18;;;;;;;12.93;7.00;;;;;;;;;;4987757;28;20624;-68
2022/09/23 06:36:43;;;;;;;12.20;6.47;;;;;;;;;;4987071;28;20213;-68
2022/09/23 06:39:08;;;;;;;10.45;6.97;;;;;;;;;;4988788;28;20415;-68
2022/09/23 06:41:33;;;;;;;12.20;6.60;;;;;;;;;;4988277;28;20209;-67
2022/09/23 06:43:59;;;;;;;10.07;6.30;;;;;;;;;;4988636;28;20205;-68
2022/09/23 06:46:24;;;;;;;10.18;6.72;;;;;;;;;;4987716;28;20213;-68
2022/09/23 06:48:49;;;;;;;10.38;6.72;;;;;;;;;;4988097;28;20216;-68
2022/09/23 06:51:18;;;;;;;10.10;6.80;;;;;;;;;;4988176;28;20260;-67
2022/09/23 06:53:44;;;;;;;11.93;6.72;;;;;;;;;;4988858;28;20211;-68
2022/09/23 06:56:10;;;;;;;10.82;7.07;;;;;;;;;;4987041;28;20221;-68
2022/09/23 06:58:36;;;;;;;17.33;7.18;;;;;;;;;;4988528;28;20231;-68
2022/09/23 07:01:04;;;;;;;11.95;6.75;;;;;;;;;;4986215;28;20220;-67
2022/09/23 07:03:30;;;;;;;10.35;6.70;;;;;;;;;;4987408;28;20598;-68
2022/09/23 07:05:56;;;;;;;10.10;6.65;;;;;;;;;;4987941;28;20272;-66
2022/09/23 07:08:22;;;;;;;13.88;7.00;;;;;;;;;;4987355;28;20217;-67
2022/09/23 07:10:51;;;;;;;12.20;5.88;;;;;;;;;;4987172;28;20213;-66
2022/09/23 07:13:17;;;;;;;8.27;5.57;;;;;;;;;;4987431;28;20221;-65
2022/09/23 07:15:47;;;;;;;8.35;5.47;;;;;;;;;;4987036;28;20256;-65
2022/09/23 07:18:12;;;;;;;8.45;5.40;;;;;;;;;;4987434;28;20259;-65
2022/09/23 07:20:38;;;;;;;9.43;5.63;;;;;;;;;;4987724;28;20213;-65
2022/09/23 07:23:03;;;;;;;9.15;5.63;;;;;;;;;;4987013;28;20770;-65
2022/09/23 07:25:28;;;;;;;10.02;5.50;;;;;;;;;;4988247;28;20221;-65
2022/09/23 07:27:54;;;;;;;10.15;5.65;;;;;;;;;;4987073;28;20205;-66
2022/09/23 07:30:20;;;;;;;8.40;6.00;;;;;;;;;;4985651;28;20586;-65
2022/09/23 07:32:45;;;;;;;9.57;5.45;;;;;;;;;;4984225;28;20284;-66
2022/09/23 07:35:10;;;;;;;7.30;5.40;;;;;;;;;;4994005;28;20209;-65
2022/09/23 07:37:36;;;;;;;7.68;5.25;;;;;;;;;;4986847;28;20352;-67
2022/09/23 07:40:02;;;;;;;11.10;5.22;;;;;;;;;;4986063;28;20731;-66
2022/09/23 07:42:27;;;;;;;8.27;5.28;;;;;;;;;;4987422;28;20217;-66
2022/09/23 07:44:56;;;;;;;8.20;5.07;;;;;;;;;;4986866;28;20292;-66
2022/09/23 07:47:22;;;;;;;10.18;5.78;;;;;;;;;;4987030;28;20232;-65
2022/09/23 07:49:47;;;;;;;10.52;6.03;;;;;;;;;;4987667;28;20221;-66
2022/09/23 07:52:12;;;;;;;8.65;5.10;;;;;;;;;;4986077;28;20643;-66
2022/09/23 07:54:38;;;;;;;8.52;5.40;;;;;;;;;;4987456;28;20241;-66
2022/09/23 07:57:03;;;;;;;10.18;5.70;;;;;;;;;;4986975;28;20205;-66
2022/09/23 07:59:28;;;;;;;8.25;5.32;;;;;;;;;;4986315;28;20231;-66
2022/09/23 08:01:55;;;;;;;8.75;5.40;;;;;;;;;;4987442;28;20208;-66
2022/09/23 08:04:27;;;;;;;9.05;5.85;;;;;;;;;;4986862;28;20243;-66
2022/09/23 08:06:54;;;;;;;8.20;5.38;;;;;;;;;;4986991;28;20205;-66
2022/09/23 08:09:21;;;;;;;9.27;4.78;;;;;;;;;;4987281;28;20217;-66
2022/09/23 08:11:46;;;;;;;7.13;4.78;;;;;;;;;;4986967;28;20217;-66
2022/09/23 08:14:12;;;;;;;9.55;5.68;;;;;;;;;;4986739;28;20255;-65
2022/09/23 08:16:38;;;;;;;9.88;5.47;;;;;;;;;;4990237;28;20213;-65
2022/09/23 08:19:04;;;;;;;7.95;5.15;;;;;;;;;;4992573;28;20408;-65
2022/09/23 08:21:29;;;;;;;7.97;4.85;;;;;;;;;;4994053;28;20766;-66
2022/09/23 08:23:54;;;;;;;7.97;5.43;;;;;;;;;;4993661;28;20752;-65
2022/09/23 08:26:20;;;;;;;8.32;5.30;;;;;;;;;;4992657;28;20667;-65
2022/09/23 08:28:46;;;;;;;6.97;4.90;;;;;;;;;;4993757;28;20205;-66
2022/09/23 08:31:13;;;;;;;9.13;5.55;;;;;;;;;;4993598;28;20663;-66
2022/09/23 08:33:39;;;;;;;9.55;5.53;;;;;;;;;;4993151;28;20211;-66
2022/09/23 08:36:04;;;;;;;8.70;5.32;;;;;;;;;;4991534;28;20692;-68
2022/09/23 08:38:30;;;;;;;8.32;5.15;;;;;;;;;;4993513;28;20219;-66
2022/09/23 08:41:03;;;;;;;8.80;5.63;;;;;;;;;;4992943;28;20217;-66
2022/09/23 08:43:29;;;;;;;10.02;5.28;;;;;;;;;;4993205;28;20208;-66
2022/09/23 08:45:54;;;;;;;10.02;5.57;;;;;;;;;;4991754;28;20272;-66
2022/09/23 08:48:23;;;;;;;9.10;5.50;;;;;;;;;;5001723;28;20279;-66
2022/09/23 08:50:51;;;;;;;9.95;5.72;;;;;;;;;;4993010;28;20726;-66
2022/09/23 08:53:19;;;;;;;8.20;5.82;;;;;;;;;;4991477;28;20228;-68
2022/09/23 08:55:45;;;;;;;10.32;5.65;;;;;;;;;;4991824;28;20631;-67
2022/09/23 08:58:29;;;;;;;8.77;5.78;;;;;;;;;;4992288;28;20292;-68
2022/09/23 09:00:56;;;;;;;8.98;5.82;;;;;;;;;;4992394;28;20718;-66
2022/09/23 09:03:22;;;;;;;10.63;6.07;;;;;;;;;;4990871;28;20260;-66
2022/09/23 09:05:47;;;;;;;8.70;6.15;;;;;;;;;;4991814;28;20197;-67
2022/09/23 09:08:13;;;;;;;9.20;6.43;;;;;;;;;;4991041;28;20236;-66
2022/09/23 09:10:40;;;;;;;10.70;6.18;;;;;;;;;;4992064;28;20220;-67
2022/09/23 09:13:06;;;;;;;8.55;6.13;;;;;;;;;;4990134;28;20209;-67
2022/09/23 09:15:31;;;;;;;9.30;5.93;;;;;;;;;;4989786;28;20259;-67
2022/09/23 09:18:06;;;;;;;8.20;6.40;;;;;;;;;;4991798;28;20236;-66
2022/09/23 09:20:38;;;;;;;10.38;5.70;;;;;;;;;;4990170;28;20220;-65
2022/09/23 09:23:11;;;;;;;8.73;6.30;;;;;;;;;;4988321;28;20213;-64
2022/09/23 09:25:36;;;;;;;11.63;6.25;;;;;;;;;;4991958;28;20708;-64
2022/09/23 09:28:07;;;;;;;11.20;6.50;;;;;;;;;;4989614;28;20197;-64
2022/09/23 09:30:33;;;;;;;10.88;6.07;;;;;;;;;;4986296;28;20225;-65
2022/09/23 09:33:00;;;;;;;8.00;5.82;;;;;;;;;;4987137;28;20209;-64
2022/09/23 09:35:32;;;;;;;9.52;5.85;;;;;;;;;;4986843;28;20225;-65
2022/09/23 09:37:57;;;;;;;9.85;6.00;;;;;;;;;;4986507;28;20217;-65
2022/09/23 09:40:22;;;;;;;8.70;6.22;;;;;;;;;;4988322;28;20205;-66
2022/09/23 09:42:48;;;;;;;12.23;6.60;;;;;;;;;;4988721;28;20209;-66
2022/09/23 09:45:18;;;;;;;11.18;6.10;;;;;;;;;;4987055;28;20438;-66
2022/09/23 09:47:46;;;;;;;8.60;5.72;;;;;;;;;;4988516;28;20209;-66
2022/09/23 09:50:20;;;;;;;13.85;6.30;;;;;;;;;;4987795;28;20231;-66
2022/09/23 09:52:47;;;;;;;8.50;5.95;;;;;;;;;;4987195;28;20225;-66
2022/09/23 09:55:12;;;;;;;12.20;6.68;;;;;;;;;;4988261;28;20216;-66
2022/09/23 09:57:39;;;;;;;9.75;6.10;;;;;;;;;;4988078;28;20212;-66
2022/09/23 10:00:17;;;;;;;11.18;6.38;;;;;;;;;;4988264;28;20294;-66
2022/09/23 10:02:42;;;;;;;11.65;6.15;;;;;;;;;;4988488;28;20220;-66
2022/09/23 10:05:21;;;;;;;9.27;6.13;;;;;;;;;;4986852;28;20736;-67
2022/09/23 10:07:47;;;;;;;12.48;6.85;;;;;;;;;;4986639;28;20712;-66
2022/09/23 10:10:19;;;;;;;9.45;6.18;;;;;;;;;;4987577;28;20229;-66
2022/09/23 10:12:45;;;;;;;10.15;5.53;;;;;;;;;;4987359;28;20216;-66
2022/09/23 10:15:25;;;;;;;8.23;5.32;;;;;;;;;;4986350;28;20288;-66
2022/09/23 10:17:50;;;;;;;9.65;5.65;;;;;;;;;;4988448;28;20203;-66
2022/09/23 10:20:16;;;;;;;8.48;5.07;;;;;;;;;;4985777;28;20435;-66
2022/09/23 10:22:42;;;;;;;11.13;6.05;;;;;;;;;;4987804;28;20205;-66
2022/09/23 10:25:08;;;;;;;8.20;5.22;;;;;;;;;;4987720;28;20217;-66
2022/09/23 10:27:34;;;;;;;10.82;6.13;;;;;;;;;;4986858;28;20213;-66
2022/09/23 10:30:01;;;;;;;8.00;5.80;;;;;;;;;;4987891;28;20272;-66
2022/09/23 10:32:29;;;;;;;8.57;5.38;;;;;;;;;;4985571;28;20604;-66
2022/09/23 10:34:55;;;;;;;7.35;5.60;;;;;;;;;;4987494;28;20275;-66
2022/09/23 10:37:32;;;;;;;9.90;5.97;;;;;;;;;;4987063;28;20241;-66
2022/09/23 10:48:20;;;;;;;11.25;6.13;;;;;;;;;;4986109;28;20763;-66
2022/09/23 10:50:48;;;;;;;9.43;6.13;;;;;;;;;;4985580;28;20213;-67
2022/09/23 10:53:48;;;;;;;9.02;5.60;;;;;;;;;;4985701;28;20343;-67
2022/09/23 10:56:22;;;;;;;9.70;5.68;;;;;;;;;;4985287;28;20228;-66
2022/09/23 10:59:08;;;;;;;8.38;5.43;;;;;;;;;;4987144;28;20242;-66
2022/09/23 11:01:39;;;;;;;9.98;5.72;;;;;;;;;;4986003;28;20217;-66
2022/09/23 11:04:15;;;;;;;11.02;6.13;;;;;;;;;;4985376;28;20225;-66
2022/09/23 11:06:41;;;;;;;11.20;5.70;;;;;;;;;;4986147;28;20895;-66
2022/09/23 11:09:22;;;;;;;10.70;6.13;;;;;;;;;;4986280;28;20305;-66
2022/09/23 11:12:00;;;;;;;9.32;4.72;;;;;;;;;;4987017;28;20217;-67
2022/09/23 11:14:26;;;;;;;7.80;5.57;;;;;;;;;;4985095;28;20241;-67
2022/09/23 11:17:06;;;;;;;10.77;5.75;;;;;;;;;;4986066;28;20240;-67
2022/09/23 11:19:39;;;;;;;8.98;6.32;;;;;;;;;;4986594;28;20489;-67
2022/09/23 11:22:04;;;;;;;7.78;5.65;;;;;;;;;;4985990;28;20264;-66
2022/09/23 11:24:33;;;;;;;8.18;5.40;;;;;;;;;;4986928;28;20221;-67
2022/09/23 11:27:12;;;;;;;8.23;5.28;;;;;;;;;;4985580;28;20244;-68
2022/09/23 11:29:46;;;;;;;8.82;5.80;;;;;;;;;;4984351;28;20251;-67
2022/09/23 11:32:30;;;;;;;7.90;5.75;;;;;;;;;;4984701;28;20739;-67
2022/09/23 11:35:09;;;;;;;7.63;5.53;;;;;;;;;;4986977;28;20220;-67
2022/09/23 11:37:36;;;;;;;8.25;5.40;;;;;;;;;;4988879;28;20779;-67
2022/09/23 11:40:02;;;;;;;9.15;5.93;;;;;;;;;;4989670;28;20233;-67
2022/09/23 11:42:29;;;;;;;8.27;5.00;;;;;;;;;;4991466;28;20205;-67
2022/09/23 11:44:58;;;;;;;8.85;5.82;;;;;;;;;;4990596;28;20209;-67
2022/09/23 11:47:25;;;;;;;11.50;5.93;;;;;;;;;;4989427;28;20212;-67
2022/09/23 11:50:05;;;;;;;10.15;5.32;;;;;;;;;;4990514;28;20227;-67
2022/09/23 11:52:32;;;;;;;9.15;5.40;;;;;;;;;;4988753;28;20221;-67
2022/09/23 11:55:05;;;;;;;8.68;6.30;;;;;;;;;;4991151;28;20219;-67
2022/09/23 11:57:32;;;;;;;11.10;5.30;;;;;;;;;;4988806;28;20209;-67
2022/09/23 11:59:59;;;;;;;10.77;5.78;;;;;;;;;;4991123;28;20200;-67
2022/09/23 12:02:43;;;;;;;9.02;5.57;;;;;;;;;;4990439;28;20215;-67
2022/09/23 12:05:09;;;;;;;8.25;5.55;;;;;;;;;;4989879;28;20288;-67
2022/09/23 12:07:52;;;;;;;11.68;6.20;;;;;;;;;;4989701;28;20217;-67
2022/09/23 12:10:17;;;;;;;11.10;5.80;;;;;;;;;;4990500;28;20256;-67
2022/09/23 12:12:47;;;;;;;10.85;5.57;;;;;;;;;;4988900;28;20212;-68
2022/09/23 12:15:31;;;;;;;8.23;5.93;;;;;;;;;;4990442;28;20209;-67
2022/09/23 12:18:02;;;;;;;8.80;5.60;;;;;;;;;;4981381;28;20879;-67
2022/09/23 12:20:44;;;;;;;12.15;6.22;;;;;;;;;;4986107;28;20243;-66
2022/09/23 12:23:14;;;;;;;9.50;5.68;;;;;;;;;;4985327;28;20216;-66
2022/09/23 12:25:45;;;;;;;7.60;5.13;;;;;;;;;;4984067;28;20240;-66
2022/09/23 12:28:19;;;;;;;8.90;5.60;;;;;;;;;;4981723;28;20648;-66
2022/09/23 12:30:45;;;;;;;8.57;5.43;;;;;;;;;;4978701;28;20220;-66
2022/09/23 12:33:23;;;;;;;8.70;5.35;;;;;;;;;;4963110;28;20206;-66
2022/09/23 12:35:49;;;;;;;9.63;5.45;;;;;;;;;;4975220;28;20213;-65
2022/09/23 12:38:18;;;;;;;8.30;5.18;;;;;;;;;;4985015;28;20223;-66
2022/09/23 12:40:43;;;;;;;9.20;6.00;;;;;;;;;;4985048;28;20231;-66
2022/09/23 12:43:16;;;;;;;12.05;5.68;;;;;;;;;;4985754;28;20629;-66
2022/09/23 12:45:41;;;;;;;8.13;5.50;;;;;;;;;;4984477;28;20588;-66
2022/09/23 12:48:26;;;;;;;9.52;5.53;;;;;;;;;;4982935;28;20209;-65
2022/09/23 12:50:53;;;;;;;10.68;5.88;;;;;;;;;;4985460;28;20279;-65
2022/09/23 12:53:33;;;;;;;12.23;5.45;;;;;;;;;;4984165;28;20237;-66
2022/09/23 12:56:00;;;;;;;8.98;5.75;;;;;;;;;;4985744;28;20243;-67
2022/09/23 12:58:37;;;;;;;10.40;6.05;;;;;;;;;;4966033;28;20549;-67
2022/09/23 13:01:14;;;;;;;11.30;6.47;;;;;;;;;;4973159;28;20676;-66
2022/09/23 13:06:39;;;;;;;12.10;6.20;;;;;;;;;;4987417;28;20709;-67
2022/09/23 13:09:07;;;;;;;10.82;6.72;;;;;;;;;;4986522;28;20209;-67
2022/09/23 13:11:32;;;;;;;11.38;7.30;;;;;;;;;;4987710;28;20261;-67
2022/09/23 13:13:59;;;;;;;12.32;8.10;;;;;;;;;;4987680;28;20228;-68
2022/09/23 13:16:32;;;;;;;14.20;7.88;;;;;;;;;;4998768;28;20212;-67
2022/09/23 13:18:58;;;;;;;13.10;7.43;;;;;;;;;;4992868;28;20212;-68
2022/09/23 13:21:41;;;;;;;14.68;8.10;;;;;;;;;;4986990;28;20720;-67
2022/09/23 13:24:15;;;;;;;15.48;9.55;;;;;;;;;;4988585;28;20292;-66
2022/09/23 13:26:44;;;;;;;14.93;7.78;;;;;;;;;;4987978;28;20659;-67
2022/09/23 13:29:12;;;;;;;15.00;8.45;;;;;;;;;;4988351;28;20240;-67
2022/09/23 13:31:38;;;;;;;16.58;9.23;;;;;;;;;;5000538;28;20247;-67
2022/09/23 13:34:04;;;;;;;15.45;8.95;;;;;;;;;;5006498;28;20224;-67
2022/09/23 13:36:30;;;;;;;13.40;8.52;;;;;;;;;;4990615;28;20572;-67
2022/09/23 13:39:13;;;;;;;14.35;8.20;;;;;;;;;;4988901;28;20272;-67
2022/09/23 13:41:39;;;;;;;12.73;7.97;;;;;;;;;;4988390;28;20209;-67
2022/09/23 13:44:04;;;;;;;13.23;7.97;;;;;;;;;;4987393;28;20288;-67
2022/09/23 13:46:31;;;;;;;12.93;7.85;;;;;;;;;;4988098;28;20209;-67
2022/09/23 13:48:57;;;;;;;12.95;7.75;;;;;;;;;;4988075;28;20244;-67
2022/09/23 13:51:24;;;;;;;12.32;7.45;;;;;;;;;;4985757;28;20225;-67
2022/09/23 13:53:52;;;;;;;13.57;7.97;;;;;;;;;;4986612;28;20248;-67
2022/09/23 13:56:17;;;;;;;12.80;7.10;;;;;;;;;;4986560;28;20500;-67
2022/09/23 13:58:42;;;;;;;15.10;7.65;;;;;;;;;;4986326;28;20214;-67
2022/09/23 14:01:09;;;;;;;13.45;7.43;;;;;;;;;;4987821;28;20641;-67
2022/09/23 14:03:34;;;;;;;14.50;7.75;;;;;;;;;;4988018;28;20219;-67
2022/09/23 14:06:00;;;;;;;14.73;7.78;;;;;;;;;;4988458;28;20217;-68
2022/09/23 14:08:27;;;;;;;11.55;7.32;;;;;;;;;;4988252;28;20723;-68
2022/09/23 14:10:52;;;;;;;11.90;7.35;;;;;;;;;;4985953;28;20217;-67
2022/09/23 14:13:25;;;;;;;14.65;7.03;;;;;;;;;;4986403;28;20684;-67
2022/09/23 14:15:51;;;;;;;13.32;7.47;;;;;;;;;;4984814;28;20205;-66
2022/09/23 14:18:20;;;;;;;12.93;7.38;;;;;;;;;;4986463;28;20237;-67
2022/09/23 14:20:46;;;;;;;13.57;7.53;;;;;;;;;;4988464;28;20213;-67
2022/09/23 14:23:13;;;;;;;10.73;6.75;;;;;;;;;;4987212;28;20679;-67
2022/09/23 14:25:39;;;;;;;10.50;6.80;;;;;;;;;;4986860;28;20695;-67
2022/09/23 14:28:04;;;;;;;16.20;7.60;;;;;;;;;;4987456;28;20283;-67
2022/09/23 14:30:29;;;;;;;13.63;7.47;;;;;;;;;;4986548;28;20220;-66
2022/09/23 14:32:55;;;;;;;11.75;7.13;;;;;;;;;;4985586;28;20213;-67
2022/09/23 14:35:21;;;;;;;12.95;6.93;;;;;;;;;;4987186;28;20240;-66
2022/09/23 14:40:33;;;;;;;12.63;7.18;;;;;;;;;;4986293;28;20215;-67
2022/09/23 14:43:01;;;;;;;11.38;6.72;;;;;;;;;;4987541;28;20618;-67
2022/09/23 14:45:27;;;;;;;11.10;6.30;;;;;;;;;;4984802;28;20201;-68
2022/09/23 14:47:57;;;;;;;10.27;6.60;;;;;;;;;;4986587;28;20213;-67
2022/09/23 14:50:35;;;;;;;10.55;6.43;;;;;;;;;;4986220;28;20244;-67
2022/09/23 14:53:02;;;;;;;11.68;6.45;;;;;;;;;;4986198;28;20237;-67
2022/09/23 14:55:28;;;;;;;11.35;6.57;;;;;;;;;;4986533;28;20267;-67